sensor_id;sensor_type;location;lat;lon;timestamp;P1;durP1;ratioP1;P2;durP2;ratioP2
71639;SDS011;60912;48.968;10.124;2023-09-07T00:00:41;4.27;;;2.20;;
71639;SDS011;60912;48.968;10.124;2023-09-07T00:03:06;6.27;;;2.53;;
71639;SDS011;60912;48.968;10.124;2023-09-07T00:05:31;3.77;;;2.53;;
71639;SDS011;60912;48.968;10.124;2023-09-07T00:07:57;4.63;;;2.50;;
71639;SDS011;60912;48.968;10.124;2023-09-07T00:10:22;5.57;;;2.70;;
71639;SDS011;60912;48.968;10.124;2023-09-07T00:12:48;5.55;;;2.65;;
71639;SDS011;60912;48.968;10.124;2023-09-07T00:15:13;5.33;;;2.53;;
71639;SDS011;60912;48.968;10.124;2023-09-07T00:17:39;4.70;;;2.40;;
71639;SDS011;60912;48.968;10.124;2023-09-07T00:20:04;4.00;;;2.43;;
71639;SDS011;60912;48.968;10.124;2023-09-07T00:22:39;5.07;;;2.40;;
71639;SDS011;60912;48.968;10.124;2023-09-07T00:25:05;4.70;;;2.53;;
71639;SDS011;60912;48.968;10.124;2023-09-07T00:27:31;4.88;;;2.55;;
71639;SDS011;60912;48.968;10.124;2023-09-07T00:29:59;4.90;;;2.55;;
71639;SDS011;60912;48.968;10.124;2023-09-07T00:32:25;4.13;;;2.43;;
71639;SDS011;60912;48.968;10.124;2023-09-07T00:34:50;4.53;;;2.50;;
71639;SDS011;60912;48.968;10.124;2023-09-07T00:37:15;5.00;;;2.60;;
71639;SDS011;60912;48.968;10.124;2023-09-07T00:39:41;3.95;;;2.60;;
71639;SDS011;60912;48.968;10.124;2023-09-07T00:42:06;4.93;;;2.60;;
71639;SDS011;60912;48.968;10.124;2023-09-07T00:44:32;5.67;;;2.30;;
71639;SDS011;60912;48.968;10.124;2023-09-07T00:46:57;4.10;;;2.63;;
71639;SDS011;60912;48.968;10.124;2023-09-07T00:49:23;4.93;;;2.70;;
71639;SDS011;60912;48.968;10.124;2023-09-07T00:51:50;4.28;;;2.63;;
71639;SDS011;60912;48.968;10.124;2023-09-07T00:54:16;3.95;;;2.35;;
71639;SDS011;60912;48.968;10.124;2023-09-07T00:56:41;6.83;;;2.93;;
71639;SDS011;60912;48.968;10.124;2023-09-07T00:59:07;5.80;;;2.80;;
71639;SDS011;60912;48.968;10.124;2023-09-07T01:01:33;5.75;;;2.70;;
71639;SDS011;60912;48.968;10.124;2023-09-07T01:03:59;4.25;;;2.47;;
71639;SDS011;60912;48.968;10.124;2023-09-07T01:06:33;4.23;;;2.70;;
71639;SDS011;60912;48.968;10.124;2023-09-07T01:09:17;4.32;;;2.50;;
71639;SDS011;60912;48.968;10.124;2023-09-07T01:11:46;7.88;;;2.90;;
71639;SDS011;60912;48.968;10.124;2023-09-07T01:14:11;6.97;;;2.60;;
71639;SDS011;60912;48.968;10.124;2023-09-07T01:16:36;6.17;;;2.70;;
71639;SDS011;60912;48.968;10.124;2023-09-07T01:19:05;5.80;;;2.75;;
71639;SDS011;60912;48.968;10.124;2023-09-07T01:21:35;5.05;;;2.78;;
71639;SDS011;60912;48.968;10.124;2023-09-07T01:24:03;7.20;;;2.73;;
71639;SDS011;60912;48.968;10.124;2023-09-07T01:26:31;8.40;;;2.72;;
71639;SDS011;60912;48.968;10.124;2023-09-07T01:28:56;4.77;;;2.67;;
71639;SDS011;60912;48.968;10.124;2023-09-07T01:31:22;5.93;;;2.70;;
71639;SDS011;60912;48.968;10.124;2023-09-07T01:33:47;4.60;;;2.60;;
71639;SDS011;60912;48.968;10.124;2023-09-07T01:36:12;5.83;;;2.50;;
71639;SDS011;60912;48.968;10.124;2023-09-07T01:38:38;4.60;;;2.50;;
71639;SDS011;60912;48.968;10.124;2023-09-07T01:41:03;4.13;;;2.43;;
71639;SDS011;60912;48.968;10.124;2023-09-07T01:43:28;4.23;;;2.40;;
71639;SDS011;60912;48.968;10.124;2023-09-07T01:45:54;4.83;;;2.57;;
71639;SDS011;60912;48.968;10.124;2023-09-07T01:48:19;5.13;;;2.70;;
71639;SDS011;60912;48.968;10.124;2023-09-07T01:50:44;5.20;;;2.30;;
71639;SDS011;60912;48.968;10.124;2023-09-07T01:53:10;6.33;;;2.77;;
71639;SDS011;60912;48.968;10.124;2023-09-07T01:55:35;7.77;;;2.60;;
71639;SDS011;60912;48.968;10.124;2023-09-07T01:58:00;5.67;;;2.77;;
71639;SDS011;60912;48.968;10.124;2023-09-07T02:00:26;8.07;;;2.80;;
71639;SDS011;60912;48.968;10.124;2023-09-07T02:02:51;4.70;;;2.40;;
71639;SDS011;60912;48.968;10.124;2023-09-07T02:05:17;4.73;;;2.63;;
71639;SDS011;60912;48.968;10.124;2023-09-07T02:07:43;5.22;;;2.72;;
71639;SDS011;60912;48.968;10.124;2023-09-07T02:10:08;4.73;;;2.60;;
71639;SDS011;60912;48.968;10.124;2023-09-07T02:12:34;4.13;;;2.30;;
71639;SDS011;60912;48.968;10.124;2023-09-07T02:15:00;5.43;;;2.83;;
71639;SDS011;60912;48.968;10.124;2023-09-07T02:17:27;4.35;;;2.63;;
71639;SDS011;60912;48.968;10.124;2023-09-07T02:19:52;6.47;;;2.77;;
71639;SDS011;60912;48.968;10.124;2023-09-07T02:22:17;4.27;;;2.50;;
71639;SDS011;60912;48.968;10.124;2023-09-07T02:24:43;6.73;;;2.70;;
71639;SDS011;60912;48.968;10.124;2023-09-07T02:27:08;4.53;;;2.73;;
71639;SDS011;60912;48.968;10.124;2023-09-07T02:29:33;7.40;;;2.50;;
71639;SDS011;60912;48.968;10.124;2023-09-07T02:31:59;6.30;;;2.83;;
71639;SDS011;60912;48.968;10.124;2023-09-07T02:34:24;5.10;;;2.87;;
71639;SDS011;60912;48.968;10.124;2023-09-07T02:36:50;5.37;;;2.63;;
71639;SDS011;60912;48.968;10.124;2023-09-07T02:39:15;4.30;;;2.90;;
71639;SDS011;60912;48.968;10.124;2023-09-07T02:41:40;5.00;;;2.90;;
71639;SDS011;60912;48.968;10.124;2023-09-07T02:44:06;6.73;;;2.80;;
71639;SDS011;60912;48.968;10.124;2023-09-07T02:46:31;6.43;;;3.47;;
71639;SDS011;60912;48.968;10.124;2023-09-07T02:48:57;8.37;;;2.70;;
71639;SDS011;60912;48.968;10.124;2023-09-07T02:51:25;5.75;;;2.80;;
71639;SDS011;60912;48.968;10.124;2023-09-07T02:53:51;7.15;;;3.30;;
71639;SDS011;60912;48.968;10.124;2023-09-07T02:56:17;6.60;;;2.90;;
71639;SDS011;60912;48.968;10.124;2023-09-07T02:58:42;6.82;;;3.20;;
71639;SDS011;60912;48.968;10.124;2023-09-07T03:01:08;6.63;;;2.90;;
71639;SDS011;60912;48.968;10.124;2023-09-07T03:03:37;8.80;;;3.10;;
71639;SDS011;60912;48.968;10.124;2023-09-07T03:06:12;5.57;;;2.88;;
71639;SDS011;60912;48.968;10.124;2023-09-07T03:08:42;6.70;;;3.10;;
71639;SDS011;60912;48.968;10.124;2023-09-07T03:11:08;6.00;;;2.90;;
71639;SDS011;60912;48.968;10.124;2023-09-07T03:13:34;5.70;;;2.78;;
71639;SDS011;60912;48.968;10.124;2023-09-07T03:16:00;6.90;;;2.80;;
71639;SDS011;60912;48.968;10.124;2023-09-07T03:18:27;5.43;;;3.30;;
71639;SDS011;60912;48.968;10.124;2023-09-07T03:20:53;7.73;;;3.33;;
71639;SDS011;60912;48.968;10.124;2023-09-07T03:23:20;6.82;;;3.00;;
71639;SDS011;60912;48.968;10.124;2023-09-07T03:25:45;7.00;;;3.17;;
71639;SDS011;60912;48.968;10.124;2023-09-07T03:28:11;8.37;;;3.27;;
71639;SDS011;60912;48.968;10.124;2023-09-07T03:30:36;6.83;;;2.77;;
71639;SDS011;60912;48.968;10.124;2023-09-07T03:33:01;5.87;;;3.10;;
71639;SDS011;60912;48.968;10.124;2023-09-07T03:35:28;5.18;;;2.80;;
71639;SDS011;60912;48.968;10.124;2023-09-07T03:37:54;6.10;;;3.23;;
71639;SDS011;60912;48.968;10.124;2023-09-07T03:40:20;5.95;;;2.95;;
71639;SDS011;60912;48.968;10.124;2023-09-07T03:42:45;5.20;;;3.10;;
71639;SDS011;60912;48.968;10.124;2023-09-07T03:45:11;6.33;;;3.10;;
71639;SDS011;60912;48.968;10.124;2023-09-07T03:47:37;9.03;;;3.20;;
71639;SDS011;60912;48.968;10.124;2023-09-07T03:50:02;7.82;;;3.20;;
71639;SDS011;60912;48.968;10.124;2023-09-07T03:52:28;5.47;;;3.20;;
71639;SDS011;60912;48.968;10.124;2023-09-07T03:54:54;8.30;;;3.37;;
71639;SDS011;60912;48.968;10.124;2023-09-07T03:57:23;6.03;;;3.28;;
71639;SDS011;60912;48.968;10.124;2023-09-07T03:59:48;8.68;;;3.58;;
71639;SDS011;60912;48.968;10.124;2023-09-07T04:02:14;7.40;;;3.50;;
71639;SDS011;60912;48.968;10.124;2023-09-07T04:04:40;8.68;;;3.90;;
71639;SDS011;60912;48.968;10.124;2023-09-07T04:07:05;9.63;;;3.33;;
71639;SDS011;60912;48.968;10.124;2023-09-07T04:09:31;9.77;;;3.67;;
71639;SDS011;60912;48.968;10.124;2023-09-07T04:11:56;8.97;;;3.40;;
71639;SDS011;60912;48.968;10.124;2023-09-07T04:14:22;8.40;;;3.40;;
71639;SDS011;60912;48.968;10.124;2023-09-07T04:16:47;9.90;;;3.87;;
71639;SDS011;60912;48.968;10.124;2023-09-07T04:19:12;6.40;;;3.50;;
71639;SDS011;60912;48.968;10.124;2023-09-07T04:21:37;7.90;;;3.35;;
71639;SDS011;60912;48.968;10.124;2023-09-07T04:24:03;5.97;;;3.13;;
71639;SDS011;60912;48.968;10.124;2023-09-07T04:26:29;8.10;;;4.18;;
71639;SDS011;60912;48.968;10.124;2023-09-07T04:28:55;7.20;;;3.60;;
71639;SDS011;60912;48.968;10.124;2023-09-07T04:31:20;7.53;;;3.43;;
71639;SDS011;60912;48.968;10.124;2023-09-07T04:33:46;7.95;;;4.00;;
71639;SDS011;60912;48.968;10.124;2023-09-07T04:36:14;8.50;;;3.30;;
71639;SDS011;60912;48.968;10.124;2023-09-07T04:38:40;8.52;;;4.25;;
71639;SDS011;60912;48.968;10.124;2023-09-07T04:41:09;7.18;;;3.38;;
71639;SDS011;60912;48.968;10.124;2023-09-07T04:43:35;8.73;;;3.47;;
71639;SDS011;60912;48.968;10.124;2023-09-07T04:46:02;7.37;;;3.53;;
71639;SDS011;60912;48.968;10.124;2023-09-07T04:48:28;6.03;;;3.42;;
71639;SDS011;60912;48.968;10.124;2023-09-07T04:51:03;8.20;;;3.57;;
71639;SDS011;60912;48.968;10.124;2023-09-07T04:53:31;6.57;;;3.30;;
71639;SDS011;60912;48.968;10.124;2023-09-07T04:55:58;7.43;;;3.40;;
71639;SDS011;60912;48.968;10.124;2023-09-07T04:58:24;9.70;;;3.40;;
71639;SDS011;60912;48.968;10.124;2023-09-07T05:00:50;6.43;;;3.60;;
71639;SDS011;60912;48.968;10.124;2023-09-07T05:03:16;7.13;;;3.40;;
71639;SDS011;60912;48.968;10.124;2023-09-07T05:05:41;7.60;;;3.58;;
71639;SDS011;60912;48.968;10.124;2023-09-07T05:08:08;6.90;;;3.23;;
71639;SDS011;60912;48.968;10.124;2023-09-07T05:10:34;10.50;;;4.07;;
71639;SDS011;60912;48.968;10.124;2023-09-07T05:12:59;9.03;;;3.57;;
71639;SDS011;60912;48.968;10.124;2023-09-07T05:15:25;8.07;;;3.50;;
71639;SDS011;60912;48.968;10.124;2023-09-07T05:17:51;6.25;;;3.10;;
71639;SDS011;60912;48.968;10.124;2023-09-07T05:20:17;8.93;;;3.20;;
71639;SDS011;60912;48.968;10.124;2023-09-07T05:22:42;7.93;;;3.23;;
71639;SDS011;60912;48.968;10.124;2023-09-07T05:25:08;6.00;;;2.80;;
71639;SDS011;60912;48.968;10.124;2023-09-07T05:27:34;7.63;;;3.15;;
71639;SDS011;60912;48.968;10.124;2023-09-07T05:30:00;6.10;;;2.90;;
71639;SDS011;60912;48.968;10.124;2023-09-07T05:32:26;6.57;;;3.25;;
71639;SDS011;60912;48.968;10.124;2023-09-07T05:34:51;9.13;;;3.23;;
71639;SDS011;60912;48.968;10.124;2023-09-07T05:37:16;11.37;;;3.43;;
71639;SDS011;60912;48.968;10.124;2023-09-07T05:39:42;7.43;;;3.37;;
71639;SDS011;60912;48.968;10.124;2023-09-07T05:42:07;6.83;;;3.33;;
71639;SDS011;60912;48.968;10.124;2023-09-07T05:44:32;6.03;;;2.97;;
71639;SDS011;60912;48.968;10.124;2023-09-07T05:46:58;6.53;;;3.17;;
71639;SDS011;60912;48.968;10.124;2023-09-07T05:49:23;6.70;;;3.10;;
71639;SDS011;60912;48.968;10.124;2023-09-07T05:51:49;5.85;;;2.80;;
71639;SDS011;60912;48.968;10.124;2023-09-07T05:54:14;9.70;;;3.47;;
71639;SDS011;60912;48.968;10.124;2023-09-07T05:56:39;6.70;;;3.10;;
71639;SDS011;60912;48.968;10.124;2023-09-07T05:59:05;8.00;;;3.23;;
71639;SDS011;60912;48.968;10.124;2023-09-07T06:01:30;6.80;;;2.93;;
71639;SDS011;60912;48.968;10.124;2023-09-07T06:03:56;8.07;;;3.00;;
71639;SDS011;60912;48.968;10.124;2023-09-07T06:06:23;11.13;;;3.00;;
71639;SDS011;60912;48.968;10.124;2023-09-07T06:08:49;8.00;;;2.70;;
71639;SDS011;60912;48.968;10.124;2023-09-07T06:11:14;8.82;;;2.92;;
71639;SDS011;60912;48.968;10.124;2023-09-07T06:13:39;7.40;;;2.70;;
71639;SDS011;60912;48.968;10.124;2023-09-07T06:16:04;6.73;;;2.87;;
71639;SDS011;60912;48.968;10.124;2023-09-07T06:18:30;10.30;;;2.97;;
71639;SDS011;60912;48.968;10.124;2023-09-07T06:20:55;5.80;;;2.40;;
71639;SDS011;60912;48.968;10.124;2023-09-07T06:23:21;6.63;;;2.90;;
71639;SDS011;60912;48.968;10.124;2023-09-07T06:25:46;7.45;;;2.83;;
71639;SDS011;60912;48.968;10.124;2023-09-07T06:28:12;4.70;;;2.70;;
71639;SDS011;60912;48.968;10.124;2023-09-07T06:30:38;6.25;;;2.70;;
71639;SDS011;60912;48.968;10.124;2023-09-07T06:33:03;9.43;;;3.20;;
71639;SDS011;60912;48.968;10.124;2023-09-07T06:35:29;7.72;;;3.10;;
71639;SDS011;60912;48.968;10.124;2023-09-07T06:38:26;6.38;;;2.95;;
71639;SDS011;60912;48.968;10.124;2023-09-07T06:40:51;5.53;;;3.00;;
71639;SDS011;60912;48.968;10.124;2023-09-07T06:43:16;7.53;;;3.00;;
71639;SDS011;60912;48.968;10.124;2023-09-07T06:45:42;9.27;;;3.90;;
71639;SDS011;60912;48.968;10.124;2023-09-07T06:48:10;7.03;;;2.80;;
71639;SDS011;60912;48.968;10.124;2023-09-07T06:50:37;7.80;;;3.20;;
71639;SDS011;60912;48.968;10.124;2023-09-07T06:53:03;7.03;;;2.90;;
71639;SDS011;60912;48.968;10.124;2023-09-07T06:55:36;5.03;;;2.93;;
71639;SDS011;60912;48.968;10.124;2023-09-07T06:58:07;9.18;;;3.15;;
71639;SDS011;60912;48.968;10.124;2023-09-07T07:00:36;6.73;;;3.00;;
71639;SDS011;60912;48.968;10.124;2023-09-07T07:03:13;6.00;;;3.20;;
71639;SDS011;60912;48.968;10.124;2023-09-07T07:05:41;5.65;;;3.60;;
71639;SDS011;60912;48.968;10.124;2023-09-07T07:08:07;7.33;;;3.07;;
71639;SDS011;60912;48.968;10.124;2023-09-07T07:10:32;6.63;;;3.22;;
71639;SDS011;60912;48.968;10.124;2023-09-07T07:12:58;9.70;;;3.07;;
71639;SDS011;60912;48.968;10.124;2023-09-07T07:15:23;6.57;;;3.40;;
71639;SDS011;60912;48.968;10.124;2023-09-07T07:17:48;6.43;;;3.63;;
71639;SDS011;60912;48.968;10.124;2023-09-07T07:20:14;6.13;;;2.70;;
71639;SDS011;60912;48.968;10.124;2023-09-07T07:22:39;5.70;;;2.90;;
71639;SDS011;60912;48.968;10.124;2023-09-07T07:25:04;5.27;;;3.20;;
71639;SDS011;60912;48.968;10.124;2023-09-07T07:27:30;5.43;;;3.10;;
71639;SDS011;60912;48.968;10.124;2023-09-07T07:29:56;8.85;;;3.38;;
71639;SDS011;60912;48.968;10.124;2023-09-07T07:32:22;9.67;;;3.50;;
71639;SDS011;60912;48.968;10.124;2023-09-07T07:34:47;8.43;;;3.63;;
71639;SDS011;60912;48.968;10.124;2023-09-07T07:37:12;7.63;;;3.60;;
71639;SDS011;60912;48.968;10.124;2023-09-07T07:39:38;8.67;;;3.60;;
71639;SDS011;60912;48.968;10.124;2023-09-07T07:42:03;10.83;;;3.47;;
71639;SDS011;60912;48.968;10.124;2023-09-07T07:44:29;4.63;;;3.40;;
71639;SDS011;60912;48.968;10.124;2023-09-07T07:46:55;10.97;;;3.63;;
71639;SDS011;60912;48.968;10.124;2023-09-07T07:49:20;5.13;;;3.50;;
71639;SDS011;60912;48.968;10.124;2023-09-07T07:51:48;9.17;;;3.40;;
71639;SDS011;60912;48.968;10.124;2023-09-07T07:54:13;8.63;;;3.58;;
71639;SDS011;60912;48.968;10.124;2023-09-07T07:56:44;5.05;;;3.17;;
71639;SDS011;60912;48.968;10.124;2023-09-07T07:59:09;4.95;;;3.65;;
71639;SDS011;60912;48.968;10.124;2023-09-07T08:01:35;6.10;;;3.37;;
71639;SDS011;60912;48.968;10.124;2023-09-07T08:04:03;7.00;;;3.78;;
71639;SDS011;60912;48.968;10.124;2023-09-07T08:06:29;7.00;;;3.23;;
71639;SDS011;60912;48.968;10.124;2023-09-07T08:08:55;7.28;;;3.63;;
71639;SDS011;60912;48.968;10.124;2023-09-07T08:11:20;6.27;;;3.60;;
71639;SDS011;60912;48.968;10.124;2023-09-07T08:13:46;5.47;;;3.15;;
71639;SDS011;60912;48.968;10.124;2023-09-07T08:16:12;6.33;;;3.67;;
71639;SDS011;60912;48.968;10.124;2023-09-07T08:18:37;5.38;;;3.45;;
71639;SDS011;60912;48.968;10.124;2023-09-07T08:21:05;6.47;;;3.53;;
71639;SDS011;60912;48.968;10.124;2023-09-07T08:23:30;5.60;;;3.23;;
71639;SDS011;60912;48.968;10.124;2023-09-07T08:25:56;5.27;;;3.50;;
71639;SDS011;60912;48.968;10.124;2023-09-07T08:28:21;7.18;;;3.60;;
71639;SDS011;60912;48.968;10.124;2023-09-07T08:30:54;10.00;;;3.80;;
71639;SDS011;60912;48.968;10.124;2023-09-07T08:33:20;6.85;;;3.53;;
71639;SDS011;60912;48.968;10.124;2023-09-07T08:35:51;5.18;;;3.45;;
71639;SDS011;60912;48.968;10.124;2023-09-07T08:38:18;5.32;;;3.80;;
71639;SDS011;60912;48.968;10.124;2023-09-07T08:40:47;7.10;;;3.55;;
71639;SDS011;60912;48.968;10.124;2023-09-07T08:43:13;6.73;;;3.70;;
71639;SDS011;60912;48.968;10.124;2023-09-07T08:45:41;5.85;;;3.53;;
71639;SDS011;60912;48.968;10.124;2023-09-07T08:48:14;8.10;;;3.45;;
71639;SDS011;60912;48.968;10.124;2023-09-07T08:50:42;5.75;;;3.80;;
71639;SDS011;60912;48.968;10.124;2023-09-07T08:53:15;6.37;;;3.40;;
71639;SDS011;60912;48.968;10.124;2023-09-07T08:55:43;5.45;;;3.90;;
71639;SDS011;60912;48.968;10.124;2023-09-07T08:58:08;6.85;;;3.50;;
71639;SDS011;60912;48.968;10.124;2023-09-07T09:00:34;5.43;;;3.70;;
71639;SDS011;60912;48.968;10.124;2023-09-07T09:03:00;5.80;;;4.03;;
71639;SDS011;60912;48.968;10.124;2023-09-07T09:05:26;6.83;;;3.60;;
71639;SDS011;60912;48.968;10.124;2023-09-07T09:08:03;5.22;;;3.53;;
71639;SDS011;60912;48.968;10.124;2023-09-07T09:10:29;8.68;;;4.20;;
71639;SDS011;60912;48.968;10.124;2023-09-07T09:12:55;7.00;;;3.23;;
71639;SDS011;60912;48.968;10.124;2023-09-07T09:15:22;5.55;;;3.47;;
71639;SDS011;60912;48.968;10.124;2023-09-07T09:17:47;5.87;;;4.00;;
71639;SDS011;60912;48.968;10.124;2023-09-07T09:20:20;6.30;;;3.75;;
71639;SDS011;60912;48.968;10.124;2023-09-07T09:22:53;4.93;;;3.50;;
71639;SDS011;60912;48.968;10.124;2023-09-07T09:25:19;6.82;;;3.97;;
71639;SDS011;60912;48.968;10.124;2023-09-07T09:27:47;8.68;;;4.05;;
71639;SDS011;60912;48.968;10.124;2023-09-07T09:30:13;5.07;;;3.90;;
71639;SDS011;60912;48.968;10.124;2023-09-07T09:32:41;6.27;;;3.50;;
71639;SDS011;60912;48.968;10.124;2023-09-07T09:35:08;6.95;;;3.72;;
71639;SDS011;60912;48.968;10.124;2023-09-07T09:37:42;5.95;;;3.60;;
71639;SDS011;60912;48.968;10.124;2023-09-07T09:40:12;6.43;;;3.50;;
71639;SDS011;60912;48.968;10.124;2023-09-07T09:42:40;5.57;;;3.30;;
71639;SDS011;60912;48.968;10.124;2023-09-07T09:45:06;8.77;;;3.50;;
71639;SDS011;60912;48.968;10.124;2023-09-07T09:47:33;4.80;;;3.10;;
71639;SDS011;60912;48.968;10.124;2023-09-07T09:50:04;5.57;;;3.63;;
71639;SDS011;60912;48.968;10.124;2023-09-07T09:52:32;8.10;;;3.35;;
71639;SDS011;60912;48.968;10.124;2023-09-07T09:55:05;5.03;;;3.17;;
71639;SDS011;60912;48.968;10.124;2023-09-07T09:57:38;5.87;;;3.17;;
71639;SDS011;60912;48.968;10.124;2023-09-07T10:00:04;4.70;;;2.75;;
71639;SDS011;60912;48.968;10.124;2023-09-07T10:05:26;6.67;;;3.30;;
71639;SDS011;60912;48.968;10.124;2023-09-07T10:07:52;7.60;;;3.15;;
71639;SDS011;60912;48.968;10.124;2023-09-07T10:10:18;5.65;;;3.47;;
71639;SDS011;60912;48.968;10.124;2023-09-07T10:12:45;5.30;;;3.03;;
71639;SDS011;60912;48.968;10.124;2023-09-07T10:15:23;4.47;;;2.85;;
71639;SDS011;60912;48.968;10.124;2023-09-07T10:17:49;7.35;;;3.50;;
71639;SDS011;60912;48.968;10.124;2023-09-07T10:20:19;8.38;;;3.20;;
71639;SDS011;60912;48.968;10.124;2023-09-07T10:22:50;5.57;;;3.30;;
71639;SDS011;60912;48.968;10.124;2023-09-07T10:25:27;4.07;;;2.90;;
71639;SDS011;60912;48.968;10.124;2023-09-07T10:27:55;5.88;;;3.35;;
71639;SDS011;60912;48.968;10.124;2023-09-07T10:32:49;4.47;;;3.13;;
71639;SDS011;60912;48.968;10.124;2023-09-07T10:35:15;6.50;;;3.33;;
71639;SDS011;60912;48.968;10.124;2023-09-07T10:37:46;5.07;;;3.00;;
71639;SDS011;60912;48.968;10.124;2023-09-07T10:40:12;6.35;;;3.10;;
71639;SDS011;60912;48.968;10.124;2023-09-07T10:42:39;5.80;;;3.45;;
71639;SDS011;60912;48.968;10.124;2023-09-07T10:45:15;5.10;;;3.13;;
71639;SDS011;60912;48.968;10.124;2023-09-07T10:47:44;4.70;;;3.10;;
71639;SDS011;60912;48.968;10.124;2023-09-07T10:50:14;4.40;;;3.20;;
71639;SDS011;60912;48.968;10.124;2023-09-07T10:52:42;6.13;;;3.00;;
71639;SDS011;60912;48.968;10.124;2023-09-07T10:55:08;6.93;;;3.15;;
71639;SDS011;60912;48.968;10.124;2023-09-07T10:57:45;6.25;;;3.05;;
71639;SDS011;60912;48.968;10.124;2023-09-07T11:00:12;6.55;;;3.03;;
71639;SDS011;60912;48.968;10.124;2023-09-07T11:02:38;4.20;;;2.80;;
71639;SDS011;60912;48.968;10.124;2023-09-07T11:05:05;5.70;;;3.00;;
71639;SDS011;60912;48.968;10.124;2023-09-07T11:07:31;5.95;;;3.42;;
71639;SDS011;60912;48.968;10.124;2023-09-07T11:09:56;5.85;;;3.10;;
71639;SDS011;60912;48.968;10.124;2023-09-07T11:12:22;5.63;;;3.07;;
71639;SDS011;60912;48.968;10.124;2023-09-07T11:14:47;6.20;;;3.20;;
71639;SDS011;60912;48.968;10.124;2023-09-07T11:17:15;5.13;;;3.17;;
71639;SDS011;60912;48.968;10.124;2023-09-07T11:19:41;4.88;;;2.97;;
71639;SDS011;60912;48.968;10.124;2023-09-07T11:22:09;5.60;;;3.17;;
71639;SDS011;60912;48.968;10.124;2023-09-07T11:24:35;7.57;;;3.03;;
71639;SDS011;60912;48.968;10.124;2023-09-07T11:27:01;5.22;;;3.17;;
71639;SDS011;60912;48.968;10.124;2023-09-07T11:29:27;8.63;;;3.00;;
71639;SDS011;60912;48.968;10.124;2023-09-07T11:32:06;5.70;;;2.78;;
71639;SDS011;60912;48.968;10.124;2023-09-07T11:34:32;4.50;;;3.00;;
71639;SDS011;60912;48.968;10.124;2023-09-07T11:36:58;4.25;;;3.00;;
71639;SDS011;60912;48.968;10.124;2023-09-07T11:39:23;8.03;;;2.90;;
71639;SDS011;60912;48.968;10.124;2023-09-07T11:41:48;5.60;;;3.10;;
71639;SDS011;60912;48.968;10.124;2023-09-07T11:44:14;6.00;;;2.90;;
71639;SDS011;60912;48.968;10.124;2023-09-07T11:46:39;4.97;;;3.10;;
71639;SDS011;60912;48.968;10.124;2023-09-07T11:49:05;4.40;;;2.83;;
71639;SDS011;60912;48.968;10.124;2023-09-07T11:51:31;4.82;;;2.90;;
71639;SDS011;60912;48.968;10.124;2023-09-07T11:53:59;4.63;;;2.57;;
71639;SDS011;60912;48.968;10.124;2023-09-07T11:56:27;7.28;;;2.90;;
71639;SDS011;60912;48.968;10.124;2023-09-07T11:58:52;6.68;;;2.80;;
71639;SDS011;60912;48.968;10.124;2023-09-07T12:01:18;12.43;;;3.33;;
71639;SDS011;60912;48.968;10.124;2023-09-07T12:03:43;5.50;;;3.13;;
71639;SDS011;60912;48.968;10.124;2023-09-07T12:06:09;7.15;;;2.72;;
71639;SDS011;60912;48.968;10.124;2023-09-07T12:08:35;6.07;;;3.10;;
71639;SDS011;60912;48.968;10.124;2023-09-07T12:11:02;3.95;;;2.47;;
71639;SDS011;60912;48.968;10.124;2023-09-07T12:13:27;7.07;;;2.47;;
71639;SDS011;60912;48.968;10.124;2023-09-07T12:15:52;6.40;;;2.57;;
71639;SDS011;60912;48.968;10.124;2023-09-07T12:18:18;5.20;;;2.60;;
71639;SDS011;60912;48.968;10.124;2023-09-07T12:20:43;4.47;;;2.73;;
71639;SDS011;60912;48.968;10.124;2023-09-07T12:23:09;5.00;;;2.35;;
71639;SDS011;60912;48.968;10.124;2023-09-07T12:25:35;4.53;;;2.70;;
71639;SDS011;60912;48.968;10.124;2023-09-07T12:28:01;5.35;;;2.53;;
71639;SDS011;60912;48.968;10.124;2023-09-07T12:30:27;7.30;;;2.97;;
71639;SDS011;60912;48.968;10.124;2023-09-07T12:32:53;4.13;;;2.75;;
71639;SDS011;60912;48.968;10.124;2023-09-07T12:35:19;5.27;;;2.50;;
71639;SDS011;60912;48.968;10.124;2023-09-07T12:37:45;3.85;;;2.60;;
71639;SDS011;60912;48.968;10.124;2023-09-07T12:40:11;5.53;;;2.60;;
71639;SDS011;60912;48.968;10.124;2023-09-07T12:42:41;4.85;;;2.67;;
71639;SDS011;60912;48.968;10.124;2023-09-07T12:45:10;6.03;;;2.80;;
71639;SDS011;60912;48.968;10.124;2023-09-07T12:47:37;4.90;;;2.70;;
71639;SDS011;60912;48.968;10.124;2023-09-07T12:50:04;4.17;;;2.70;;
71639;SDS011;60912;48.968;10.124;2023-09-07T12:52:30;7.72;;;2.78;;
71639;SDS011;60912;48.968;10.124;2023-09-07T12:54:56;5.35;;;2.60;;
71639;SDS011;60912;48.968;10.124;2023-09-07T12:57:22;5.32;;;2.45;;
71639;SDS011;60912;48.968;10.124;2023-09-07T12:59:47;4.20;;;2.83;;
71639;SDS011;60912;48.968;10.124;2023-09-07T13:02:14;18.17;;;3.03;;
71639;SDS011;60912;48.968;10.124;2023-09-07T13:04:39;4.53;;;2.60;;
71639;SDS011;60912;48.968;10.124;2023-09-07T13:07:05;4.83;;;2.87;;
71639;SDS011;60912;48.968;10.124;2023-09-07T13:09:30;5.40;;;2.80;;
71639;SDS011;60912;48.968;10.124;2023-09-07T13:11:56;4.72;;;2.80;;
71639;SDS011;60912;48.968;10.124;2023-09-07T13:14:21;4.50;;;2.60;;
71639;SDS011;60912;48.968;10.124;2023-09-07T13:16:46;4.07;;;2.60;;
71639;SDS011;60912;48.968;10.124;2023-09-07T13:19:12;6.43;;;3.10;;
71639;SDS011;60912;48.968;10.124;2023-09-07T13:21:37;4.60;;;2.80;;
71639;SDS011;60912;48.968;10.124;2023-09-07T13:24:03;4.33;;;2.80;;
71639;SDS011;60912;48.968;10.124;2023-09-07T13:26:28;6.13;;;2.67;;
71639;SDS011;60912;48.968;10.124;2023-09-07T13:28:54;6.40;;;2.47;;
71639;SDS011;60912;48.968;10.124;2023-09-07T13:31:19;4.97;;;2.70;;
71639;SDS011;60912;48.968;10.124;2023-09-07T13:33:44;7.97;;;2.80;;
71639;SDS011;60912;48.968;10.124;2023-09-07T13:36:10;4.50;;;2.57;;
71639;SDS011;60912;48.968;10.124;2023-09-07T13:38:36;5.33;;;2.80;;
71639;SDS011;60912;48.968;10.124;2023-09-07T13:41:01;5.22;;;2.90;;
71639;SDS011;60912;48.968;10.124;2023-09-07T13:43:26;4.70;;;2.53;;
71639;SDS011;60912;48.968;10.124;2023-09-07T13:45:52;4.60;;;2.80;;
71639;SDS011;60912;48.968;10.124;2023-09-07T13:48:17;4.03;;;2.63;;
71639;SDS011;60912;48.968;10.124;2023-09-07T13:50:42;4.82;;;2.58;;
71639;SDS011;60912;48.968;10.124;2023-09-07T13:53:08;4.90;;;2.70;;
71639;SDS011;60912;48.968;10.124;2023-09-07T13:55:33;5.43;;;3.00;;
71639;SDS011;60912;48.968;10.124;2023-09-07T13:58:00;4.63;;;2.67;;
71639;SDS011;60912;48.968;10.124;2023-09-07T14:00:25;3.73;;;2.37;;
71639;SDS011;60912;48.968;10.124;2023-09-07T14:02:51;4.90;;;2.70;;
71639;SDS011;60912;48.968;10.124;2023-09-07T14:05:17;5.07;;;2.90;;
71639;SDS011;60912;48.968;10.124;2023-09-07T14:07:43;6.03;;;2.80;;
71639;SDS011;60912;48.968;10.124;2023-09-07T14:10:08;5.60;;;3.00;;
71639;SDS011;60912;48.968;10.124;2023-09-07T14:12:33;5.38;;;2.63;;
71639;SDS011;60912;48.968;10.124;2023-09-07T14:14:59;5.87;;;2.57;;
71639;SDS011;60912;48.968;10.124;2023-09-07T14:17:24;5.17;;;2.73;;
71639;SDS011;60912;48.968;10.124;2023-09-07T14:19:50;7.23;;;2.67;;
71639;SDS011;60912;48.968;10.124;2023-09-07T14:22:15;6.53;;;2.70;;
71639;SDS011;60912;48.968;10.124;2023-09-07T14:24:40;4.90;;;2.65;;
71639;SDS011;60912;48.968;10.124;2023-09-07T14:27:06;7.63;;;3.10;;
71639;SDS011;60912;48.968;10.124;2023-09-07T14:29:32;5.30;;;2.65;;
71639;SDS011;60912;48.968;10.124;2023-09-07T14:31:58;5.40;;;2.43;;
71639;SDS011;60912;48.968;10.124;2023-09-07T14:34:24;4.30;;;3.00;;